Time;durP1;ratioP1;P1;durP2;ratioP2;P2;SDS_P1;SDS_P2;PMS_P1;PMS_P2;Temp;Humidity;BMP_temperature;BMP_pressure;BME280_temperature;BME280_humidity;BME280_pressure;Samples;Min_cycle;Max_cycle;Signal;HPM_P1;HPM_P2
2022/03/12 00:02:03;;;;;;;11.15;5.57;;;-4.00;99.90;;;;;;5292002;28;20081;-76
2022/03/12 00:04:34;;;;;;;14.55;8.30;;;-4.50;99.90;;;;;;5292047;28;20096;-76
2022/03/12 00:07:09;;;;;;;15.73;6.65;;;-4.30;99.90;;;;;;5291995;28;20028;-76
2022/03/12 00:09:39;;;;;;;11.70;5.45;;;-4.10;99.90;;;;;;5291607;28;20047;-75
2022/03/12 00:12:12;;;;;;;12.50;6.60;;;-4.20;99.90;;;;;;5291956;28;20020;-76
2022/03/12 00:14:43;;;;;;;13.25;6.10;;;-4.40;99.90;;;;;;5291811;28;20509;-75
2022/03/12 00:17:16;;;;;;;15.73;5.47;;;-4.60;99.90;;;;;;5291780;28;20044;-76
2022/03/12 00:19:46;;;;;;;9.73;5.72;;;-4.40;99.90;;;;;;5291548;28;20023;-75
2022/03/12 00:22:17;;;;;;;16.17;6.13;;;-4.90;99.90;;;;;;5290359;28;20019;-76
2022/03/12 00:24:48;;;;;;;15.68;8.32;;;-4.90;99.90;;;;;;5291647;28;20374;-76
2022/03/12 00:27:19;;;;;;;14.23;5.70;;;-4.90;99.90;;;;;;5290297;28;20020;-76
2022/03/12 00:29:50;;;;;;;17.88;8.25;;;-5.20;99.90;;;;;;5291461;28;20012;-75
2022/03/12 00:32:21;;;;;;;18.75;7.30;;;-5.10;99.90;;;;;;5291426;28;20011;-76
2022/03/12 00:34:52;;;;;;;12.60;6.57;;;-4.80;99.90;;;;;;5290091;28;20463;-75
2022/03/12 00:37:24;;;;;;;32.80;15.10;;;-5.30;99.90;;;;;;5291178;28;20063;-76
2022/03/12 00:39:55;;;;;;;10.75;6.40;;;-5.60;99.90;;;;;;5291122;28;20031;-76
2022/03/12 00:42:26;;;;;;;11.68;6.47;;;-5.60;99.90;;;;;;5291302;28;20378;-76
2022/03/12 00:44:57;;;;;;;15.57;6.93;;;-5.40;99.90;;;;;;5291287;28;20015;-75
2022/03/12 00:47:28;;;;;;;12.88;6.30;;;-5.30;99.90;;;;;;5291193;28;20020;-76
2022/03/12 00:49:59;;;;;;;12.18;7.30;;;-6.00;99.90;;;;;;5291127;28;20030;-75
2022/03/12 00:52:29;;;;;;;12.82;6.40;;;-6.10;99.90;;;;;;5291021;28;20020;-76
2022/03/12 00:55:00;;;;;;;13.52;7.13;;;-6.20;99.90;;;;;;5291024;27;20023;-76
2022/03/12 00:57:31;;;;;;;12.68;6.43;;;-5.90;99.90;;;;;;5290954;28;20023;-76
2022/03/12 01:00:03;;;;;;;20.42;10.10;;;-6.20;99.90;;;;;;5290757;28;20456;-76
2022/03/12 01:02:34;;;;;;;12.15;7.95;;;-6.00;99.90;;;;;;5290892;28;20513;-75
2022/03/12 01:05:05;;;;;;;12.57;6.22;;;-6.20;99.90;;;;;;5290143;28;20031;-75
2022/03/12 01:07:36;;;;;;;12.95;6.32;;;-6.50;99.90;;;;;;5290638;28;20098;-75
2022/03/12 01:10:08;;;;;;;15.52;7.10;;;-6.40;99.90;;;;;;5290597;28;20135;-76
2022/03/12 01:12:39;;;;;;;11.02;6.72;;;-6.20;99.90;;;;;;5290608;28;20026;-75
2022/03/12 01:15:11;;;;;;;14.20;7.60;;;-6.70;99.90;;;;;;5290321;28;20036;-76
2022/03/12 01:17:41;;;;;;;10.73;7.30;;;-6.70;99.90;;;;;;5290459;28;20095;-75
2022/03/12 01:20:12;;;;;;;24.38;10.75;;;-6.70;99.90;;;;;;5290358;28;20122;-76
2022/03/12 01:22:44;;;;;;;14.73;7.50;;;-6.40;99.90;;;;;;5288846;28;20027;-76
2022/03/12 01:25:15;;;;;;;12.75;7.05;;;-6.70;99.90;;;;;;5290461;28;20028;-75
2022/03/12 01:27:46;;;;;;;12.55;7.45;;;-6.70;99.90;;;;;;5289001;28;20028;-76
2022/03/12 01:30:26;;;;;;;12.77;7.45;;;-6.60;99.90;;;;;;5289132;28;20036;-76
2022/03/12 01:32:58;;;;;;;14.30;7.32;;;-6.60;99.90;;;;;;5290420;28;20032;-76
2022/03/12 01:35:28;;;;;;;14.55;7.30;;;-6.60;99.90;;;;;;5288960;28;20034;-76
2022/03/12 01:38:01;;;;;;;15.27;7.70;;;-6.80;99.90;;;;;;5289593;28;20103;-76
2022/03/12 01:40:32;;;;;;;12.98;6.82;;;-7.10;99.90;;;;;;5288735;28;20386;-76
2022/03/12 01:43:05;;;;;;;11.70;7.30;;;-7.10;99.90;;;;;;5290134;28;20019;-76
2022/03/12 01:45:36;;;;;;;19.20;9.65;;;-7.30;99.90;;;;;;5290114;28;20031;-76
2022/03/12 01:48:07;;;;;;;13.20;7.10;;;;;;;;;;5290091;28;20527;-76
2022/03/12 01:50:39;;;;;;;14.52;7.30;;;-7.20;99.90;;;;;;5290067;28;20441;-76
2022/03/12 01:53:11;;;;;;;17.58;8.55;;;-7.10;99.90;;;;;;5290021;28;20409;-76
2022/03/12 01:55:43;;;;;;;15.05;7.80;;;-7.30;99.90;;;;;;5289975;28;20352;-76
2022/03/12 01:58:14;;;;;;;10.20;6.82;;;-7.20;99.90;;;;;;5288487;28;20024;-76
2022/03/12 02:00:49;;;;;;;30.20;13.57;;;-7.20;99.90;;;;;;5289823;28;20035;-75
2022/03/12 02:03:22;;;;;;;13.13;7.40;;;-7.10;99.90;;;;;;5289872;28;20020;-76
2022/03/12 02:05:53;;;;;;;11.50;6.65;;;-7.10;99.90;;;;;;5289891;28;20024;-76
2022/03/12 02:08:25;;;;;;;12.70;6.95;;;-7.70;99.90;;;;;;5289361;28;20048;-76
2022/03/12 02:10:58;;;;;;;11.77;7.25;;;-7.40;99.90;;;;;;5289815;28;20034;-76
2022/03/12 02:13:29;;;;;;;12.82;7.30;;;-7.30;99.90;;;;;;5288503;28;20024;-76
2022/03/12 02:16:08;;;;;;;10.82;6.90;;;-7.20;99.90;;;;;;5291442;28;20482;-76
2022/03/12 02:18:45;;;;;;;11.25;6.63;;;-7.50;99.90;;;;;;5292698;28;20046;-76
2022/03/12 02:21:34;;;;;;;14.77;6.68;;;-7.70;99.90;;;;;;5294082;28;20034;-76
2022/03/12 02:24:11;;;;;;;13.18;6.32;;;-7.60;99.90;;;;;;5294157;28;20024;-76
2022/03/12 02:26:44;;;;;;;18.88;8.85;;;-7.90;99.90;;;;;;5294032;28;20007;-76
2022/03/12 02:29:21;;;;;;;11.98;6.15;;;-7.80;99.90;;;;;;5293860;28;20020;-76
2022/03/12 02:32:03;;;;;;;19.60;8.68;;;-7.60;99.90;;;;;;5293953;28;20100;-76
2022/03/12 02:34:42;;;;;;;14.77;7.63;;;-7.80;99.90;;;;;;5293935;28;20023;-76
2022/03/12 02:37:33;;;;;;;12.30;7.78;;;-7.70;99.90;;;;;;5292566;28;20020;-76
2022/03/12 02:40:07;;;;;;;14.40;5.80;;;-7.40;99.90;;;;;;5293685;28;20542;-76
2022/03/12 02:42:39;;;;;;;14.93;7.07;;;-7.40;99.90;;;;;;5293753;28;20035;-76
2022/03/12 02:45:11;;;;;;;12.32;7.45;;;-7.40;99.90;;;;;;5293668;28;20026;-76
2022/03/12 02:47:43;;;;;;;14.30;7.93;;;-7.20;99.90;;;;;;5293565;28;20467;-76
2022/03/12 02:50:14;;;;;;;16.85;7.65;;;-7.20;99.90;;;;;;5293495;28;20015;-76
2022/03/12 02:52:46;;;;;;;14.88;8.35;;;-7.10;99.90;;;;;;5293589;28;20028;-76
2022/03/12 02:55:22;;;;;;;19.67;8.55;;;-6.80;99.90;;;;;;5293435;27;20068;-76
2022/03/12 02:57:53;;;;;;;18.10;8.73;;;-6.90;99.90;;;;;;5293385;28;20402;-76
2022/03/12 03:00:24;;;;;;;26.75;10.98;;;-7.20;99.90;;;;;;5293141;28;20035;-76
2022/03/12 03:02:55;;;;;;;13.68;8.25;;;-7.50;99.90;;;;;;5292125;28;20023;-76
2022/03/12 03:05:38;;;;;;;14.45;8.45;;;-7.30;99.90;;;;;;5293265;28;20012;-76
2022/03/12 03:08:13;;;;;;;16.20;7.82;;;-7.10;99.90;;;;;;5292845;28;20036;-76
2022/03/12 03:10:46;;;;;;;11.18;7.00;;;-7.00;99.90;;;;;;5293276;28;20031;-76
2022/03/12 03:13:18;;;;;;;16.60;8.63;;;-7.50;99.90;;;;;;5293139;28;20031;-76
2022/03/12 03:16:00;;;;;;;14.38;9.70;;;-7.40;99.90;;;;;;5291761;28;20024;-76
2022/03/12 03:18:33;;;;;;;34.33;21.40;;;-7.20;99.90;;;;;;5292849;28;20051;-76
2022/03/12 03:21:10;;;;;;;21.05;11.27;;;-7.30;99.90;;;;;;5292912;28;20023;-76
2022/03/12 03:23:45;;;;;;;13.75;8.13;;;-7.30;99.90;;;;;;5292921;28;20063;-76
2022/03/12 03:26:40;;;;;;;13.23;7.88;;;-7.50;99.90;;;;;;5292553;28;20028;-76
2022/03/12 03:29:13;;;;;;;15.82;8.75;;;-7.60;99.90;;;;;;5292776;28;20368;-76
2022/03/12 03:31:44;;;;;;;12.55;7.35;;;-7.40;99.90;;;;;;5292691;28;20073;-76
2022/03/12 03:34:16;;;;;;;12.52;7.68;;;-7.40;99.90;;;;;;5292690;28;20371;-76
2022/03/12 03:36:48;;;;;;;13.38;8.45;;;-7.50;99.90;;;;;;5292446;28;20016;-76
2022/03/12 03:39:19;;;;;;;14.23;8.32;;;-7.40;99.90;;;;;;5292360;28;20051;-77
2022/03/12 03:41:50;;;;;;;17.08;7.97;;;-7.00;99.90;;;;;;5292458;27;20016;-76
2022/03/12 03:44:28;;;;;;;13.90;7.57;;;-7.00;99.90;;;;;;5292597;28;20397;-76
2022/03/12 03:46:59;;;;;;;14.57;7.63;;;-7.10;99.90;;;;;;5292561;28;20077;-76
2022/03/12 03:49:30;;;;;;;14.10;8.02;;;-7.30;99.90;;;;;;5291007;28;20080;-76
2022/03/12 03:52:01;;;;;;;12.73;7.60;;;-7.20;99.90;;;;;;5291040;28;20024;-76
2022/03/12 03:54:32;;;;;;;14.65;7.82;;;-7.30;99.90;;;;;;5291019;28;20023;-77
2022/03/12 03:57:03;;;;;;;12.80;7.30;;;-7.30;99.90;;;;;;5292215;28;20028;-77
2022/03/12 03:59:34;;;;;;;12.77;7.60;;;-7.40;99.90;;;;;;5292040;28;20032;-76
2022/03/12 04:02:05;;;;;;;16.70;7.53;;;-7.30;99.90;;;;;;5292087;28;20023;-77
2022/03/12 04:04:38;;;;;;;12.90;7.32;;;-7.20;99.90;;;;;;5292090;28;20457;-76
2022/03/12 04:07:11;;;;;;;14.40;7.65;;;-7.20;99.90;;;;;;5291930;28;20044;-76
2022/03/12 04:09:42;;;;;;;14.88;7.93;;;-7.20;99.90;;;;;;5291532;28;20044;-79
2022/03/12 04:12:13;;;;;;;16.15;7.50;;;-7.40;99.90;;;;;;5291980;27;20093;-77
2022/03/12 04:14:44;;;;;;;11.75;7.50;;;-7.30;99.90;;;;;;5292009;28;20020;-77
2022/03/12 04:17:15;;;;;;;15.70;7.63;;;-7.30;99.90;;;;;;5291811;28;20024;-76
2022/03/12 04:19:47;;;;;;;14.40;8.13;;;-7.70;99.90;;;;;;5291599;28;20114;-76
2022/03/12 04:22:20;;;;;;;13.75;8.30;;;-7.70;99.90;;;;;;5290452;28;20374;-76
2022/03/12 04:24:51;;;;;;;14.77;7.15;;;-7.80;99.90;;;;;;5291684;28;20020;-76
2022/03/12 04:27:22;;;;;;;11.38;6.75;;;-7.60;99.90;;;;;;5291736;28;20073;-77
2022/03/12 04:29:52;;;;;;;14.70;7.38;;;-7.80;99.90;;;;;;5291484;28;20023;-76
2022/03/12 04:32:23;;;;;;;14.55;7.30;;;-7.80;99.90;;;;;;5291520;28;20034;-76
2022/03/12 04:34:54;;;;;;;15.43;7.53;;;-8.10;99.90;;;;;;5291459;28;20086;-76
2022/03/12 04:37:25;;;;;;;15.38;7.85;;;-8.30;99.90;;;;;;5291291;28;20102;-76
2022/03/12 04:39:56;;;;;;;14.90;7.70;;;-8.10;99.90;;;;;;5288871;28;20454;-77
2022/03/12 04:42:27;;;;;;;15.02;7.95;;;-7.70;99.90;;;;;;5289858;28;20024;-76
2022/03/12 04:44:58;;;;;;;15.18;7.05;;;-8.00;99.90;;;;;;5291253;28;20412;-76
2022/03/12 04:47:29;;;;;;;12.48;6.88;;;-7.80;99.90;;;;;;5291187;28;20421;-80
2022/03/12 04:50:00;;;;;;;12.70;7.07;;;-7.70;99.90;;;;;;5291135;28;20016;-78
2022/03/12 04:52:31;;;;;;;12.50;7.60;;;-7.60;99.90;;;;;;5291105;28;20027;-76
2022/03/12 04:55:11;;;;;;;13.30;7.55;;;-8.10;99.90;;;;;;5291043;28;20004;-77
2022/03/12 04:57:43;;;;;;;15.75;8.60;;;-7.90;99.90;;;;;;5290966;28;20035;-77
2022/03/12 05:00:18;;;;;;;10.40;7.13;;;-7.70;99.90;;;;;;5290805;28;20111;-77
2022/03/12 05:03:04;;;;;;;18.88;7.47;;;-7.80;99.90;;;;;;5291012;28;20065;-76
2022/03/12 05:05:39;;;;;;;14.23;6.60;;;-7.60;99.90;;;;;;5290966;28;20007;-76
2022/03/12 05:08:36;;;;;;;16.17;8.00;;;-7.90;99.90;;;;;;5290429;28;20089;-76
2022/03/12 05:11:08;;;;;;;15.90;7.45;;;-7.60;99.90;;;;;;5290784;28;20382;-76
2022/03/12 05:13:39;;;;;;;13.40;7.28;;;-7.70;99.90;;;;;;5290791;28;20081;-76
2022/03/12 05:16:09;;;;;;;12.23;7.78;;;-7.50;99.90;;;;;;5290698;28;20502;-76
2022/03/12 05:18:41;;;;;;;14.18;7.82;;;-7.60;99.90;;;;;;5290469;28;20360;-76
2022/03/12 05:21:12;;;;;;;15.77;6.95;;;-7.40;99.90;;;;;;5290594;28;20063;-77
2022/03/12 05:23:42;;;;;;;11.98;7.22;;;-7.10;99.90;;;;;;5289272;28;20058;-76
2022/03/12 05:26:13;;;;;;;13.98;6.82;;;-7.30;99.90;;;;;;5290475;28;20063;-76
2022/03/12 05:28:45;;;;;;;11.52;6.57;;;-7.20;99.90;;;;;;5290413;28;20016;-76
2022/03/12 05:31:17;;;;;;;13.05;7.43;;;-6.90;99.90;;;;;;5290334;28;20076;-77
2022/03/12 05:33:47;;;;;;;14.73;7.07;;;-6.90;99.90;;;;;;5290393;28;20065;-77
2022/03/12 05:36:18;;;;;;;10.15;6.38;;;-6.70;99.90;;;;;;5290306;28;20032;-76
2022/03/12 05:38:49;;;;;;;11.57;6.50;;;-6.20;99.90;;;;;;5289983;28;20039;-76
2022/03/12 05:41:20;;;;;;;11.10;6.38;;;-6.70;99.90;;;;;;5290121;28;20051;-76
2022/03/12 05:43:51;;;;;;;13.40;6.90;;;-6.40;99.90;;;;;;5288944;28;20008;-76
2022/03/12 05:46:22;;;;;;;12.15;6.50;;;-6.10;99.90;;;;;;5290187;28;20058;-77
2022/03/12 05:48:54;;;;;;;154.05;60.60;;;-6.00;99.90;;;;;;5290017;28;20463;-76
2022/03/12 05:51:25;;;;;;;79.25;36.63;;;-5.50;99.90;;;;;;5289811;28;20073;-77
2022/03/12 05:53:56;;;;;;;60.08;29.42;;;-4.20;99.90;;;;;;5290221;28;20031;-76
2022/03/12 05:56:26;;;;;;;35.55;17.17;;;-3.70;99.90;;;;;;5290000;28;20027;-76
2022/03/12 05:58:57;;;;;;;35.50;16.42;;;-3.80;99.90;;;;;;5289819;28;20073;-77
2022/03/12 06:01:28;;;;;;;24.95;11.75;;;-3.60;99.90;;;;;;5290290;28;20487;-77
2022/03/12 06:04:03;;;;;;;15.95;9.30;;;-3.20;99.90;;;;;;5290019;28;20476;-77
2022/03/12 06:06:35;;;;;;;12.57;6.95;;;-2.80;99.90;;;;;;5289941;28;20056;-76
2022/03/12 06:09:07;;;;;;;16.17;9.02;;;-0.90;99.90;;;;;;5289460;28;20056;-76
2022/03/12 06:11:42;;;;;;;13.93;7.40;;;-2.70;99.90;;;;;;5289773;28;20051;-76
2022/03/12 06:14:16;;;;;;;10.00;6.40;;;-2.20;99.90;;;;;;5289890;28;20092;-76
2022/03/12 06:16:50;;;;;;;13.10;7.35;;;-2.50;99.90;;;;;;5289909;28;20031;-77
2022/03/12 06:19:22;;;;;;;11.98;7.57;;;-2.40;99.90;;;;;;5289687;28;20028;-77
2022/03/12 06:21:55;;;;;;;15.25;8.07;;;-2.80;99.90;;;;;;5289716;28;20048;-77
2022/03/12 06:24:26;;;;;;;17.83;8.68;;;-2.30;99.90;;;;;;5289766;28;20398;-76
2022/03/12 06:26:58;;;;;;;12.70;7.80;;;-2.30;99.90;;;;;;5289797;28;20401;-77
2022/03/12 06:29:28;;;;;;;19.58;11.32;;;-2.10;99.90;;;;;;5289722;28;20053;-76
2022/03/12 06:31:59;;;;;;;12.20;6.72;;;-2.40;99.90;;;;;;5289687;28;20028;-76
2022/03/12 06:34:30;;;;;;;12.32;6.55;;;-2.50;99.90;;;;;;5288420;28;20124;-77
2022/03/12 06:37:02;;;;;;;13.85;8.55;;;-2.50;99.90;;;;;;5288279;28;20552;-77
2022/03/12 06:39:33;;;;;;;12.10;6.88;;;-3.00;99.90;;;;;;5289455;28;20028;-77
2022/03/12 06:42:05;;;;;;;14.55;7.28;;;-2.60;99.90;;;;;;5287890;28;20032;-76
2022/03/12 06:44:37;;;;;;;10.30;5.90;;;-2.80;99.90;;;;;;5289034;28;20027;-76
2022/03/12 06:47:09;;;;;;;14.20;6.22;;;-2.80;99.90;;;;;;5288259;28;20119;-77
2022/03/12 06:49:39;;;;;;;23.15;14.43;;;-3.00;99.90;;;;;;5289535;28;20034;-76
2022/03/12 06:52:10;;;;;;;8.48;5.45;;;-2.50;99.90;;;;;;5289525;28;20016;-76
2022/03/12 06:54:41;;;;;;;11.63;5.85;;;-2.50;99.90;;;;;;5289529;28;20055;-76
2022/03/12 06:57:12;;;;;;;14.77;6.05;;;-1.80;99.90;;;;;;5289460;28;20024;-77
2022/03/12 06:59:43;;;;;;;11.95;6.28;;;-1.30;99.90;;;;;;5289332;28;20040;-76
2022/03/12 07:02:14;;;;;;;10.70;6.32;;;-1.60;99.90;;;;;;5290654;28;20414;-77
2022/03/12 07:04:45;;;;;;;13.07;5.97;;;-1.70;99.90;;;;;;5293317;28;20031;-77
2022/03/12 07:07:16;;;;;;;9.82;5.88;;;-2.00;99.90;;;;;;5291846;28;20375;-77
2022/03/12 07:09:46;;;;;;;10.95;6.43;;;-1.70;99.90;;;;;;5293020;28;20043;-77
2022/03/12 07:12:17;;;;;;;12.32;7.57;;;-1.60;99.90;;;;;;5293278;28;20035;-76
2022/03/12 07:14:48;;;;;;;12.60;7.45;;;-1.50;99.90;;;;;;5293174;28;20099;-77
2022/03/12 07:17:19;;;;;;;18.20;8.57;;;-1.40;99.90;;;;;;5292993;28;20103;-77
2022/03/12 07:19:50;;;;;;;14.82;7.25;;;-0.90;99.90;;;;;;5292894;28;20042;-77
2022/03/12 07:22:21;;;;;;;14.45;7.18;;;-1.10;99.90;;;;;;5291644;28;20062;-77
2022/03/12 07:24:53;;;;;;;14.70;7.80;;;-1.00;99.90;;;;;;5292791;27;20059;-76
2022/03/12 07:27:25;;;;;;;14.30;6.80;;;-0.70;99.90;;;;;;5292796;28;20026;-77
2022/03/12 07:29:55;;;;;;;81.15;47.60;;;-0.70;99.90;;;;;;5292791;28;20031;-76
2022/03/12 07:32:30;;;;;;;12.95;6.55;;;-0.90;99.90;;;;;;5292758;28;20387;-77
2022/03/12 07:35:02;;;;;;;12.23;6.82;;;-0.70;99.90;;;;;;5292826;28;20521;-76
2022/03/12 07:37:33;;;;;;;11.65;6.60;;;-0.80;99.90;;;;;;5292570;28;20024;-76
2022/03/12 07:40:05;;;;;;;12.15;6.93;;;-0.70;99.90;;;;;;5292329;28;20517;-76
2022/03/12 07:42:37;;;;;;;13.40;7.25;;;-0.40;99.90;;;;;;5292500;28;20027;-77
2022/03/12 07:45:09;;;;;;;12.15;6.80;;;0.20;99.90;;;;;;5292554;28;20154;-76
2022/03/12 07:47:40;;;;;;;11.40;5.80;;;0.40;99.90;;;;;;5292335;28;20027;-76
2022/03/12 07:50:12;;;;;;;11.85;6.45;;;-0.10;99.90;;;;;;5292345;28;20523;-77
2022/03/12 07:52:43;;;;;;;8.65;5.05;;;0.60;99.90;;;;;;5292343;28;20475;-77
2022/03/12 07:55:16;;;;;;;13.52;6.57;;;-0.20;99.90;;;;;;5292239;28;20077;-78
2022/03/12 07:57:47;;;;;;;10.45;5.50;;;0.10;99.90;;;;;;5292220;28;20012;-78
2022/03/12 08:00:18;;;;;;;11.32;6.30;;;-0.10;99.90;;;;;;5291914;28;20031;-79
2022/03/12 08:02:50;;;;;;;15.35;8.00;;;0.20;99.90;;;;;;5292186;28;20024;-79
2022/03/12 08:05:23;;;;;;;10.88;6.38;;;0.40;99.90;;;;;;5292115;28;20083;-78
2022/03/12 08:07:56;;;;;;;11.10;6.70;;;-0.40;99.90;;;;;;5291676;28;20042;-78
2022/03/12 08:10:27;;;;;;;11.95;5.90;;;-0.60;99.90;;;;;;5291998;28;20185;-78
2022/03/12 08:12:58;;;;;;;11.50;5.72;;;-0.70;99.90;;;;;;5291722;28;20020;-78
2022/03/12 08:15:29;;;;;;;14.13;7.75;;;0.20;99.90;;;;;;5291860;28;20478;-79
2022/03/12 08:17:59;;;;;;;11.07;6.60;;;0.00;99.90;;;;;;5291798;28;20023;-77
2022/03/12 08:20:30;;;;;;;11.60;6.78;;;0.30;99.90;;;;;;5291637;28;20394;-77
2022/03/12 08:23:01;;;;;;;10.52;5.88;;;0.30;99.90;;;;;;5291708;28;20378;-77
2022/03/12 08:25:32;;;;;;;11.85;6.22;;;0.10;99.90;;;;;;5291730;28;20019;-77
2022/03/12 08:28:03;;;;;;;13.40;8.05;;;0.20;99.90;;;;;;5289947;28;20030;-77
2022/03/12 08:30:35;;;;;;;11.95;7.40;;;0.00;99.90;;;;;;5290291;28;20459;-77
2022/03/12 08:33:06;;;;;;;10.00;6.10;;;0.00;99.90;;;;;;5291657;28;20134;-77
2022/03/12 08:35:37;;;;;;;9.32;5.57;;;-0.10;99.90;;;;;;5291490;28;20370;-77
2022/03/12 08:38:08;;;;;;;10.70;6.75;;;0.20;99.90;;;;;;5291203;28;20098;-78
2022/03/12 08:40:39;;;;;;;11.68;7.55;;;0.20;99.90;;;;;;5291205;28;20039;-77
2022/03/12 08:43:10;;;;;;;13.73;7.18;;;0.00;99.90;;;;;;5291299;28;20024;-77
2022/03/12 08:45:41;;;;;;;13.07;6.78;;;0.50;99.90;;;;;;5289996;28;20027;-76
2022/03/12 08:48:13;;;;;;;16.27;7.57;;;-0.70;99.90;;;;;;5289936;28;20024;-77
2022/03/12 08:50:47;;;;;;;12.63;7.00;;;0.20;99.90;;;;;;5291135;28;20011;-77
2022/03/12 08:53:17;;;;;;;15.00;6.93;;;0.10;99.90;;;;;;5291138;28;20032;-77
2022/03/12 08:55:49;;;;;;;11.95;6.63;;;0.10;99.90;;;;;;5291141;28;20077;-77
2022/03/12 08:58:23;;;;;;;10.77;6.57;;;-0.30;99.90;;;;;;5291004;28;20033;-77
2022/03/12 09:00:54;;;;;;;12.05;6.97;;;-0.30;99.90;;;;;;5290829;28;20548;-77
2022/03/12 09:03:25;;;;;;;12.07;7.00;;;-0.20;99.90;;;;;;5290925;28;20028;-76
2022/03/12 09:05:56;;;;;;;14.57;6.85;;;-0.30;99.90;;;;;;5290838;28;20540;-76
2022/03/12 09:08:29;;;;;;;15.65;7.85;;;-0.50;99.90;;;;;;5290375;27;20055;-82
2022/03/12 09:11:00;;;;;;;12.15;6.60;;;-0.50;99.90;;;;;;5290767;28;20028;-76
2022/03/12 09:13:31;;;;;;;11.85;6.70;;;-0.30;99.90;;;;;;5290791;28;20428;-77
2022/03/12 09:16:02;;;;;;;10.48;6.82;;;-0.30;99.90;;;;;;5290682;27;20094;-77
2022/03/12 09:18:33;;;;;;;11.57;6.97;;;0.50;99.90;;;;;;5290406;28;20031;-77
2022/03/12 09:21:04;;;;;;;9.18;6.00;;;-0.40;99.90;;;;;;5290500;28;20035;-77
2022/03/12 09:23:34;;;;;;;12.65;6.22;;;-0.50;99.90;;;;;;5290408;28;20020;-77
2022/03/12 09:26:06;;;;;;;12.80;6.75;;;-0.30;99.90;;;;;;5289802;28;20024;-76
2022/03/12 09:28:36;;;;;;;12.63;7.60;;;-0.10;99.90;;;;;;5290285;28;20024;-77
2022/03/12 09:31:09;;;;;;;11.88;6.47;;;-0.30;99.90;;;;;;5290245;28;20495;-76
2022/03/12 09:33:40;;;;;;;10.43;6.10;;;0.00;99.90;;;;;;5290302;28;20128;-77
2022/03/12 09:36:11;;;;;;;15.90;6.95;;;0.50;99.90;;;;;;5290313;28;20129;-77
2022/03/12 09:38:42;;;;;;;11.73;6.60;;;0.80;99.90;;;;;;5289886;28;20637;-77
2022/03/12 09:41:13;;;;;;;31.15;17.02;;;1.30;99.90;;;;;;5290071;27;20028;-76
2022/03/12 09:43:44;;;;;;;16.13;7.78;;;0.70;99.90;;;;;;5290186;28;20459;-77
2022/03/12 09:46:14;;;;;;;12.00;6.88;;;0.00;99.90;;;;;;5290126;28;20023;-77
2022/03/12 09:48:45;;;;;;;12.50;7.10;;;0.20;99.90;;;;;;5290109;28;20023;-77
2022/03/12 09:51:17;;;;;;;11.38;6.65;;;0.20;99.90;;;;;;5290043;28;20035;-76
2022/03/12 09:53:48;;;;;;;13.75;6.88;;;0.40;99.90;;;;;;5288761;28;20049;-77
2022/03/12 09:56:18;;;;;;;10.52;6.40;;;0.00;99.90;;;;;;5289994;28;20055;-80
2022/03/12 09:58:49;;;;;;;12.10;7.20;;;0.30;99.90;;;;;;5289928;28;20106;-77
2022/03/12 10:01:20;;;;;;;11.32;6.45;;;0.50;99.90;;;;;;5289859;28;20031;-77
2022/03/12 10:03:51;;;;;;;11.45;6.97;;;1.20;99.90;;;;;;5290004;28;20046;-77
2022/03/12 10:06:22;;;;;;;11.40;5.65;;;1.80;99.90;;;;;;5289884;28;20034;-77
2022/03/12 10:08:53;;;;;;;10.13;5.50;;;1.40;99.90;;;;;;5288231;28;20440;-76
2022/03/12 10:11:24;;;;;;;9.95;5.88;;;1.50;99.90;;;;;;5289993;28;20367;-78
2022/03/12 10:13:55;;;;;;;11.98;7.90;;;1.70;99.90;;;;;;5289894;28;20028;-77
2022/03/12 10:16:29;;;;;;;10.00;6.45;;;3.10;99.90;;;;;;5289870;28;20024;-77
2022/03/12 10:19:00;;;;;;;9.07;5.90;;;3.40;99.90;;;;;;5288425;28;20555;-77
2022/03/12 10:21:32;;;;;;;8.93;5.57;;;3.60;95.60;;;;;;5289635;28;20069;-77
2022/03/12 10:24:03;;;;;;;10.20;6.15;;;2.40;99.90;;;;;;5289821;28;20027;-77
2022/03/12 10:26:34;;;;;;;9.85;5.35;;;2.70;99.90;;;;;;5289711;28;20102;-77
2022/03/12 10:29:05;;;;;;;8.35;5.50;;;2.20;99.90;;;;;;5289699;28;20114;-77
2022/03/12 10:31:41;;;;;;;10.60;6.43;;;1.20;99.90;;;;;;5289639;28;20020;-77
2022/03/12 10:34:22;;;;;;;9.90;5.85;;;1.00;99.90;;;;;;5289712;28;20108;-77
2022/03/12 10:36:55;;;;;;;9.70;5.75;;;1.50;99.90;;;;;;5292013;28;20043;-77
2022/03/12 10:39:33;;;;;;;8.98;5.78;;;1.00;99.90;;;;;;5292368;28;20124;-77
2022/03/12 10:42:08;;;;;;;11.68;6.32;;;2.00;99.90;;;;;;5293715;28;20024;-77
2022/03/12 10:44:40;;;;;;;9.82;6.35;;;1.60;99.90;;;;;;5293829;28;20035;-76
2022/03/12 10:47:23;;;;;;;8.52;5.18;;;3.60;99.90;;;;;;5292351;28;20023;-79
2022/03/12 10:50:00;;;;;;;10.68;5.63;;;3.20;99.90;;;;;;5292452;28;20395;-77
2022/03/12 10:52:32;;;;;;;11.38;6.50;;;1.50;99.90;;;;;;5293670;28;20360;-77
2022/03/12 10:55:22;;;;;;;10.60;5.78;;;0.90;99.90;;;;;;5293554;28;20022;-77
2022/03/12 10:58:02;;;;;;;8.98;5.65;;;1.80;99.90;;;;;;5285223;28;20026;-77
2022/03/12 11:00:38;;;;;;;9.40;5.63;;;1.90;99.90;;;;;;5293326;28;20043;-76
2022/03/12 11:03:12;;;;;;;10.60;6.05;;;2.10;99.90;;;;;;5292173;28;20028;-77
2022/03/12 11:05:44;;;;;;;12.35;6.45;;;1.50;99.90;;;;;;5293307;28;20027;-77
2022/03/12 11:08:21;;;;;;;11.48;5.53;;;1.70;99.90;;;;;;5292843;28;20043;-77
2022/03/12 11:10:53;;;;;;;7.95;5.35;;;2.90;99.90;;;;;;5293291;28;20074;-77
2022/03/12 11:13:40;;;;;;;11.50;6.07;;;2.80;99.90;;;;;;5291902;28;20463;-77
2022/03/12 11:16:22;;;;;;;8.75;6.05;;;1.90;99.90;;;;;;5293174;28;20069;-78
2022/03/12 11:18:53;;;;;;;9.90;6.13;;;1.90;99.90;;;;;;5293021;28;20063;-76
2022/03/12 11:21:28;;;;;;;10.50;5.72;;;2.70;99.90;;;;;;5292908;28;20412;-77
2022/03/12 11:23:59;;;;;;;11.52;6.75;;;1.80;99.90;;;;;;5292942;28;20103;-77
2022/03/12 11:26:30;;;;;;;11.32;6.13;;;2.00;99.90;;;;;;5292921;28;20034;-77
2022/03/12 11:29:01;;;;;;;11.73;6.03;;;2.10;99.90;;;;;;5292848;28;20032;-76
2022/03/12 11:31:44;;;;;;;9.90;6.10;;;1.70;99.90;;;;;;5292787;28;20020;-76
2022/03/12 11:34:23;;;;;;;9.43;5.97;;;1.90;99.90;;;;;;5292801;28;20030;-77
2022/03/12 11:37:21;;;;;;;13.05;6.20;;;1.70;99.90;;;;;;5292600;28;20104;-77
2022/03/12 11:39:55;;;;;;;11.85;6.38;;;2.20;99.90;;;;;;5291504;28;20042;-77
2022/03/12 11:42:27;;;;;;;13.52;7.55;;;2.00;99.90;;;;;;5292467;28;20032;-77
2022/03/12 11:45:02;;;;;;;10.68;6.95;;;2.40;99.90;;;;;;5292563;28;20058;-77
2022/03/12 11:47:35;;;;;;;10.38;6.47;;;2.40;99.90;;;;;;5291946;28;20034;-77
2022/03/12 11:50:22;;;;;;;12.02;5.88;;;1.40;99.90;;;;;;5291138;28;20421;-76
2022/03/12 11:52:54;;;;;;;8.57;5.97;;;1.40;99.90;;;;;;5292428;28;20468;-76
2022/03/12 11:55:27;;;;;;;11.07;6.38;;;1.70;99.90;;;;;;5292393;28;20415;-76
2022/03/12 11:57:59;;;;;;;10.75;6.07;;;1.70;99.90;;;;;;5292340;28;20020;-76
2022/03/12 12:00:29;;;;;;;10.73;6.60;;;1.50;99.90;;;;;;5292056;28;20040;-76
2022/03/12 12:03:00;;;;;;;12.32;7.32;;;1.50;99.90;;;;;;5292157;27;20035;-76
2022/03/12 12:05:32;;;;;;;11.55;7.13;;;1.50;99.90;;;;;;5292141;28;20410;-77
2022/03/12 12:08:03;;;;;;;8.98;5.55;;;2.10;99.90;;;;;;5291575;28;20024;-77
2022/03/12 12:10:41;;;;;;;9.82;6.85;;;2.30;99.90;;;;;;5292082;28;20024;-77
2022/03/12 12:13:13;;;;;;;9.57;6.70;;;2.10;99.90;;;;;;5292011;28;20027;-77
2022/03/12 12:15:45;;;;;;;13.57;6.22;;;2.40;99.90;;;;;;5291846;28;20028;-77
2022/03/12 12:18:16;;;;;;;11.77;6.22;;;2.00;99.90;;;;;;5291892;28;20027;-77
2022/03/12 12:20:47;;;;;;;8.65;5.75;;;2.20;99.90;;;;;;5291692;28;20031;-77
2022/03/12 12:23:20;;;;;;;10.75;6.80;;;2.00;99.90;;;;;;5291767;28;20036;-77
2022/03/12 12:25:51;;;;;;;13.60;7.60;;;2.20;99.90;;;;;;5291714;28;20115;-77
2022/03/12 12:28:24;;;;;;;10.13;6.32;;;1.70;99.90;;;;;;5291605;28;20114;-77
2022/03/12 12:30:55;;;;;;;9.52;6.25;;;1.90;99.90;;;;;;5291668;28;20035;-77
2022/03/12 12:33:31;;;;;;;10.95;6.70;;;1.60;99.90;;;;;;5291689;27;20032;-77
2022/03/12 12:36:08;;;;;;;11.57;6.88;;;2.00;99.90;;;;;;5291545;28;20050;-77
2022/03/12 12:38:43;;;;;;;11.45;7.53;;;2.10;99.90;;;;;;5291099;28;20084;-77
2022/03/12 12:41:14;;;;;;;11.48;7.25;;;1.80;99.90;;;;;;5291329;28;20031;-77
2022/03/12 12:43:45;;;;;;;12.38;7.53;;;2.00;99.90;;;;;;5291383;28;20042;-77
2022/03/12 12:46:17;;;;;;;10.85;6.03;;;1.40;99.90;;;;;;5291375;28;20015;-77
2022/03/12 12:48:51;;;;;;;13.13;7.40;;;1.10;99.90;;;;;;5289892;28;20027;-77
2022/03/12 12:51:26;;;;;;;11.60;7.47;;;1.10;99.90;;;;;;5291166;28;20032;-77
2022/03/12 12:54:00;;;;;;;10.90;6.38;;;1.10;99.90;;;;;;5291128;28;20026;-77
2022/03/12 12:56:36;;;;;;;10.00;6.00;;;1.00;99.90;;;;;;5291034;28;20027;-77
2022/03/12 12:59:12;;;;;;;15.55;7.47;;;0.90;99.90;;;;;;5290304;28;20036;-76
2022/03/12 13:01:49;;;;;;;11.73;6.40;;;1.10;99.90;;;;;;5290669;28;20413;-76
2022/03/12 13:04:46;;;;;;;12.68;6.95;;;0.60;99.90;;;;;;5291035;28;20371;-76
2022/03/12 13:07:23;;;;;;;13.35;7.07;;;0.90;99.90;;;;;;5287600;27;20036;-76
2022/03/12 13:09:58;;;;;;;11.60;7.07;;;0.70;99.90;;;;;;5290650;28;20062;-77